Time;durP1;ratioP1;P1;durP2;ratioP2;P2;SDS_P1;SDS_P2;PMS_P1;PMS_P2;Temp;Humidity;BMP_temperature;BMP_pressure;BME280_temperature;BME280_humidity;BME280_pressure;Samples;Min_cycle;Max_cycle;Signal;HPM_P1;HPM_P2
2021/07/17 00:01:24;;;;;;;;;;;;;;;22.61;73.36;98061.45;1763330;81;20560;-87
2021/07/17 00:03:50;;;;;;;;;;;;;;;22.58;73.39;98065.34;1756964;80;24983;-87
2021/07/17 00:06:16;;;;;;;;;;;;;;;22.49;73.44;98066.47;1746244;82;20297;-87
2021/07/17 00:08:50;;;;;;;;;;;;;;;22.47;73.50;98057.86;1745732;82;21098;-88
2021/07/17 00:11:16;;;;;;;;;;;;;;;22.46;73.56;98046.87;1744255;82;26192;-87
2021/07/17 00:13:43;;;;;;;;;;;;;;;22.42;73.61;98029.07;1747996;82;20270;-88
2021/07/17 00:16:10;;;;;;;;;;;;;;;22.42;73.66;98018.94;1743810;82;25090;-87
2021/07/17 00:18:41;;;;;;;;;;;;;;;22.42;73.72;98018.94;1743649;81;22783;-88
2021/07/17 00:21:08;;;;;;;;;;;;;;;22.38;73.77;98021.66;1745226;82;26189;-88
2021/07/17 00:23:37;;;;;;;;;;;;;;;22.36;73.86;98039.70;1745159;82;24521;-88
2021/07/17 00:26:07;;;;;;;;;;;;;;;22.26;73.91;98040.50;1743038;82;20498;-88
2021/07/17 00:28:33;;;;;;;;;;;;;;;22.14;74.00;98044.71;1744672;82;25140;-88
2021/07/17 00:30:59;;;;;;;;;;;;;;;21.99;74.06;98052.73;1745489;81;21994;-88
2021/07/17 00:33:27;;;;;;;;;;;;;;;21.87;74.13;98061.72;1747919;82;21170;-87
2021/07/17 00:35:53;;;;;;;;;;;;;;;21.76;74.24;98066.70;1715476;82;24513;-87
2021/07/17 00:38:19;;;;;;;;;;;;;;;21.66;74.36;98065.64;1742795;80;20864;-87
2021/07/17 00:40:52;;;;;;;;;;;;;;;21.66;74.48;98065.13;1743998;82;24998;-87
2021/07/17 00:43:24;;;;;;;;;;;;;;;21.81;74.64;98059.80;1742687;82;21988;-88
2021/07/17 00:45:56;;;;;;;;;;;;;;;21.94;74.79;98057.77;1717721;82;26134;-87
2021/07/17 00:48:23;;;;;;;;;;;;;;;22.01;74.84;98058.20;1744661;82;24180;-87
2021/07/17 00:50:49;;;;;;;;;;;;;;;22.04;74.89;98053.82;1747631;82;20196;-88
2021/07/17 00:53:18;;;;;;;;;;;;;;;22.07;74.95;98052.63;1743968;80;25091;-87
2021/07/17 00:55:48;;;;;;;;;;;;;;;22.03;75.03;98044.20;1744894;82;22810;-87
2021/07/17 00:58:37;;;;;;;;;;;;;;;21.98;75.08;98041.25;1746040;80;25987;-87
2021/07/17 01:01:05;;;;;;;;;;;;;;;21.98;75.13;98047.91;1749769;81;24534;-87
2021/07/17 01:03:33;;;;;;;;;;;;;;;21.95;75.16;98050.97;1746947;81;20484;-88
2021/07/17 01:05:58;;;;;;;;;;;;;;;21.89;75.23;98053.52;1759923;80;25613;-87
2021/07/17 01:08:26;;;;;;;;;;;;;;;21.74;75.26;98054.89;1763255;81;20808;-88
2021/07/17 01:10:52;;;;;;;;;;;;;;;21.66;75.33;98054.98;1765284;81;26137;-88
2021/07/17 01:13:18;;;;;;;;;;;;;;;21.71;75.41;98053.95;1759903;81;20230;-88
2021/07/17 01:15:45;;;;;;;;;;;;;;;21.78;75.49;98057.49;1761625;80;20772;-87
2021/07/17 01:18:12;;;;;;;;;;;;;;;21.69;75.56;98055.95;1762361;80;24946;-88
2021/07/17 01:20:40;;;;;;;;;;;;;;;21.61;75.65;98072.03;1764861;81;22863;-88
2021/07/17 01:23:08;;;;;;;;;;;;;;;21.53;75.78;98065.48;1763225;79;26049;-88
2021/07/17 01:25:36;;;;;;;;;;;;;;;21.55;75.88;98064.77;1761888;81;25129;-88
2021/07/17 01:28:03;;;;;;;;;;;;;;;21.60;76.02;98058.42;1762625;81;20281;-88
2021/07/17 01:30:37;;;;;;;;;;;;;;;21.70;76.17;98057.62;1762182;81;25572;-88
2021/07/17 01:33:01;;;;;;;;;;;;;;;21.68;76.28;98064.45;1762308;81;22031;-88
2021/07/17 01:35:36;;;;;;;;;;;;;;;21.73;76.40;98074.55;1763359;81;21131;-88
2021/07/17 01:38:02;;;;;;;;;;;;;;;21.72;76.50;98078.22;1763045;81;24413;-88
2021/07/17 01:40:28;;;;;;;;;;;;;;;21.72;76.61;98076.88;1761645;81;20275;-88
2021/07/17 01:42:58;;;;;;;;;;;;;;;21.84;76.74;98073.23;1761214;81;24888;-88
2021/07/17 01:45:25;;;;;;;;;;;;;;;21.93;76.83;98064.14;1763459;79;21942;-88
2021/07/17 01:47:51;;;;;;;;;;;;;;;22.01;76.94;98068.88;1763289;79;26013;-87
2021/07/17 01:50:31;;;;;;;;;;;;;;;22.03;77.00;98072.69;1757769;81;24480;-87
2021/07/17 01:53:04;;;;;;;;;;;;;;;21.96;77.08;98079.77;1760768;81;20586;-88
2021/07/17 01:55:30;;;;;;;;;;;;;;;21.84;77.12;98075.40;1764521;81;24987;-87
2021/07/17 01:58:06;;;;;;;;;;;;;;;21.90;77.20;98084.48;1762744;81;22168;-87
2021/07/17 02:00:32;;;;;;;;;;;;;;;21.83;77.24;98075.58;1763423;81;25945;-88
2021/07/17 02:02:58;;;;;;;;;;;;;;;21.76;77.30;98071.52;1738446;81;24386;-88
2021/07/17 02:05:25;;;;;;;;;;;;;;;21.77;77.38;98069.16;1769172;80;20374;-88
2021/07/17 02:07:52;;;;;;;;;;;;;;;21.74;77.48;98066.88;1774960;80;24998;-88
2021/07/17 02:10:27;;;;;;;;;;;;;;;21.68;77.56;98065.78;1776782;80;22093;-88
2021/07/17 02:13:12;;;;;;;;;;;;;;;21.63;77.63;98064.19;1775902;80;26829;-88
2021/07/17 02:15:49;;;;;;;;;;;;;;;21.63;77.72;98060.70;1777709;80;25130;-88
2021/07/17 02:18:16;;;;;;;;;;;;;;;21.64;77.80;98075.67;1773035;80;20197;-89
2021/07/17 02:20:42;;;;;;;;;;;;;;;21.63;77.90;98073.51;1776596;79;25105;-88
2021/07/17 02:23:11;;;;;;;;;;;;;;;21.64;77.99;98074.34;1777874;80;22609;-88
2021/07/17 02:25:37;;;;;;;;;;;;;;;21.62;78.08;98072.36;1775785;79;26124;-89
2021/07/17 02:28:03;;;;;;;;;;;;;;;21.67;78.19;98068.62;1743819;80;24430;-88
2021/07/17 02:30:31;;;;;;;;;;;;;;;21.73;78.26;98064.39;1774470;80;20239;-88
2021/07/17 02:32:58;;;;;;;;;;;;;;;21.83;78.32;98063.59;1776222;79;25543;-89
2021/07/17 02:35:24;;;;;;;;;;;;;;;21.98;78.40;98060.44;1774678;80;22070;-88
2021/07/17 02:37:50;;;;;;;;;;;;;;;22.09;78.45;98062.08;1775835;80;26041;-88
2021/07/17 02:40:16;;;;;;;;;;;;;;;22.17;78.49;98057.14;1775225;80;24511;-88
2021/07/17 02:42:42;;;;;;;;;;;;;;;22.23;78.51;98067.05;1774615;80;20481;-88
2021/07/17 02:45:13;;;;;;;;;;;;;;;22.27;78.49;98060.31;1771288;80;25097;-88
2021/07/17 02:47:39;;;;;;;;;;;;;;;22.31;78.51;98063.45;1774675;80;22183;-87
2021/07/17 02:50:06;;;;;;;;;;;;;;;22.21;78.50;98061.07;1777672;80;26028;-87
2021/07/17 02:52:32;;;;;;;;;;;;;;;22.08;78.50;98050.30;1778156;80;24447;-87
2021/07/17 02:54:58;;;;;;;;;;;;;;;22.08;78.52;98051.13;1771014;80;20302;-87
2021/07/17 02:57:24;;;;;;;;;;;;;;;22.04;78.55;98050.33;1775908;80;24964;-87
2021/07/17 02:59:50;;;;;;;;;;;;;;;21.97;78.57;98052.95;1776328;79;20315;-88
2021/07/17 03:02:16;;;;;;;;;;;;;;;21.99;78.60;98048.23;1777687;80;21148;-88
2021/07/17 03:04:42;;;;;;;;;;;;;;;21.95;78.63;98054.13;1778032;79;20263;-88
2021/07/17 03:07:08;;;;;;;;;;;;;;;21.88;78.66;98063.84;1763355;81;20279;-88
2021/07/17 03:09:34;;;;;;;;;;;;;;;21.75;78.70;98065.05;1760584;81;20883;-88
2021/07/17 03:12:00;;;;;;;;;;;;;;;21.73;78.76;98059.89;1758794;81;22018;-88
2021/07/17 03:14:26;;;;;;;;;;;;;;;21.69;78.85;98062.11;1762498;81;21195;-88
2021/07/17 03:16:52;;;;;;;;;;;;;;;21.69;78.93;98063.45;1763057;81;24474;-88
2021/07/17 03:19:18;;;;;;;;;;;;;;;21.74;79.00;98068.72;1762469;81;20320;-88
2021/07/17 03:21:45;;;;;;;;;;;;;;;21.74;79.08;98073.54;1760850;81;20218;-88
2021/07/17 03:24:11;;;;;;;;;;;;;;;21.75;79.15;98072.53;1760742;81;22092;-87
2021/07/17 03:26:39;;;;;;;;;;;;;;;21.76;79.23;98068.03;1764700;81;26662;-88
2021/07/17 03:29:05;;;;;;;;;;;;;;;21.75;79.29;98073.86;1761310;81;24572;-89
2021/07/17 03:31:43;;;;;;;;;;;;;;;21.70;79.32;98083.75;1764065;81;20316;-88
2021/07/17 03:34:09;;;;;;;;;;;;;;;21.69;79.37;98090.59;1664685;84;25038;-88
2021/07/17 03:36:35;;;;;;;;;;;;;;;21.66;79.42;98086.95;1761794;81;20281;-89
2021/07/17 03:39:01;;;;;;;;;;;;;;;21.67;79.49;98089.94;1760967;81;26199;-88
2021/07/17 03:41:29;;;;;;;;;;;;;;;21.65;79.57;98089.31;1763318;81;24565;-88
2021/07/17 03:43:55;;;;;;;;;;;;;;;21.69;79.63;98089.25;1761351;81;20518;-88
2021/07/17 03:46:21;;;;;;;;;;;;;;;21.71;79.72;98097.90;1762413;81;25005;-89
2021/07/17 03:48:47;;;;;;;;;;;;;;;21.71;79.78;98092.57;1762024;81;20297;-88
2021/07/17 03:51:13;;;;;;;;;;;;;;;21.78;79.85;98088.63;1759824;81;26916;-88
2021/07/17 03:53:39;;;;;;;;;;;;;;;21.79;79.88;98091.12;1762968;81;20264;-87
2021/07/17 03:56:05;;;;;;;;;;;;;;;21.79;79.93;98091.12;1759453;79;20236;-87
2021/07/17 03:58:31;;;;;;;;;;;;;;;21.85;79.98;98093.55;1761004;81;24980;-88
2021/07/17 04:00:57;;;;;;;;;;;;;;;21.86;80.04;98090.70;1762993;81;21969;-88
2021/07/17 04:03:23;;;;;;;;;;;;;;;21.89;80.07;98096.98;1762631;81;21064;-88
2021/07/17 04:05:50;;;;;;;;;;;;;;;21.90;80.13;98094.64;1759902;81;24409;-88
2021/07/17 04:08:16;;;;;;;;;;;;;;;21.92;80.16;98094.46;1763519;79;20316;-88
2021/07/17 04:10:42;;;;;;;;;;;;;;;21.89;80.19;98087.65;1758856;81;20257;-88
2021/07/17 04:13:07;;;;;;;;;;;;;;;21.82;80.21;98084.61;1738934;81;21916;-88
2021/07/17 04:15:34;;;;;;;;;;;;;;;21.75;80.26;98084.52;1763087;81;25971;-88
2021/07/17 04:17:59;;;;;;;;;;;;;;;21.76;80.33;98082.18;1762794;81;20332;-88
2021/07/17 04:20:31;;;;;;;;;;;;;;;21.76;80.39;98089.34;1761327;81;20895;-88
2021/07/17 04:23:01;;;;;;;;;;;;;;;21.72;80.46;98091.53;1762466;81;25218;-88
2021/07/17 04:25:30;;;;;;;;;;;;;;;21.68;80.53;98088.42;1738937;81;37728;-88
2021/07/17 04:27:56;;;;;;;;;;;;;;;21.64;80.64;98074.34;1759281;81;26006;-89
2021/07/17 04:30:22;;;;;;;;;;;;;;;21.72;80.75;98084.88;1762983;81;25220;-88
2021/07/17 04:32:48;;;;;;;;;;;;;;;21.76;80.82;98081.35;1761678;81;20452;-88
2021/07/17 04:35:18;;;;;;;;;;;;;;;21.79;80.92;98081.80;1763250;81;25120;-88
2021/07/17 04:37:45;;;;;;;;;;;;;;;21.78;80.99;98088.13;1761209;81;21378;-88
2021/07/17 04:40:13;;;;;;;;;;;;;;;21.78;81.06;98077.98;1719482;83;25950;-88
2021/07/17 04:42:39;;;;;;;;;;;;;;;21.83;81.12;98070.25;1701516;82;24633;-88
2021/07/17 04:45:07;;;;;;;;;;;;;;;21.88;81.22;98068.67;1714587;83;20580;-89
2021/07/17 04:47:34;;;;;;;;;;;;;;;21.94;81.29;98067.96;1713169;83;25105;-88
2021/07/17 04:50:04;;;;;;;;;;;;;;;21.93;81.34;98070.80;1714878;83;22089;-88
2021/07/17 04:52:33;;;;;;;;;;;;;;;21.92;81.37;98076.64;1714859;83;26070;-88
2021/07/17 04:54:59;;;;;;;;;;;;;;;21.90;81.43;98075.98;1715743;83;24452;-88
2021/07/17 04:57:25;;;;;;;;;;;;;;;21.93;81.46;98074.80;1711328;82;20776;-88
2021/07/17 04:59:51;;;;;;;;;;;;;;;21.98;81.51;98070.56;1722860;82;25036;-88
2021/07/17 05:02:21;;;;;;;;;;;;;;;22.15;81.62;98067.16;1701616;82;21848;-88
2021/07/17 05:04:45;;;;;;;;;;;;;;;22.29;81.72;98067.63;1726608;81;26084;-88
2021/07/17 05:07:11;;;;;;;;;;;;;;;22.28;81.72;98065.97;1760657;81;24561;-88
2021/07/17 05:09:37;;;;;;;;;;;;;;;22.20;81.71;98074.11;1761201;81;21519;-88
2021/07/17 05:12:03;;;;;;;;;;;;;;;22.19;81.67;98072.95;1762798;81;24976;-87
2021/07/17 05:14:29;;;;;;;;;;;;;;;22.24;81.70;98070.04;1762884;81;22042;-88
2021/07/17 05:16:55;;;;;;;;;;;;;;;22.30;81.75;98069.28;1761941;81;21012;-88
2021/07/17 05:19:21;;;;;;;;;;;;;;;22.44;81.77;98071.55;1761576;81;20876;-88
2021/07/17 05:21:47;;;;;;;;;;;;;;;22.56;81.83;98071.37;1762033;81;20318;-87
2021/07/17 05:24:18;;;;;;;;;;;;;;;22.61;81.83;98064.12;1762407;81;20237;-87
2021/07/17 05:26:46;;;;;;;;;;;;;;;22.65;81.85;98064.04;1761357;81;21794;-87
2021/07/17 05:29:14;;;;;;;;;;;;;;;22.68;81.86;98066.34;1763403;79;26161;-87
2021/07/17 05:31:41;;;;;;;;;;;;;;;22.71;81.84;98065.47;1762407;81;24427;-88
2021/07/17 05:34:07;;;;;;;;;;;;;;;22.72;81.85;98067.13;1759659;81;20532;-88
2021/07/17 05:36:39;;;;;;;;;;;;;;;22.73;81.85;98063.45;1761236;81;24990;-88
2021/07/17 05:39:05;;;;;;;;;;;;;;;22.76;81.83;98059.55;1763542;81;22226;-88
2021/07/17 05:41:31;;;;;;;;;;;;;;;22.77;81.79;98067.38;1759033;81;26104;-87
2021/07/17 05:43:58;;;;;;;;;;;;;;;22.81;81.78;98070.47;1762962;81;24502;-88
2021/07/17 05:46:29;;;;;;;;;;;;;;;22.83;81.76;98069.27;1738049;81;20163;-88
2021/07/17 05:48:58;;;;;;;;;;;;;;;22.96;81.79;98071.73;1759770;79;25069;-88
2021/07/17 05:51:24;;;;;;;;;;;;;;;23.04;81.77;98078.23;1759946;81;22060;-88
2021/07/17 05:53:50;;;;;;;;;;;;;;;23.08;81.75;98084.83;1763753;81;21025;-88
2021/07/17 05:56:16;;;;;;;;;;;;;;;23.15;81.74;98084.38;1762575;81;24487;-88
2021/07/17 05:58:42;;;;;;;;;;;;;;;23.15;81.69;98091.05;1763224;81;20720;-88
2021/07/17 06:01:12;;;;;;;;;;;;;;;23.09;81.63;98093.16;1760737;81;20229;-88
2021/07/17 06:03:36;;;;;;;;;;;;;;;22.96;81.52;98095.75;1762767;81;21971;-88
2021/07/17 06:06:01;;;;;;;;;;;;;;;22.83;81.44;98097.80;1765556;79;26015;-88
2021/07/17 06:08:27;;;;;;;;;;;;;;;22.77;81.41;98098.05;1767060;80;20221;-88
2021/07/17 06:10:53;;;;;;;;;;;;;;;22.74;81.39;98102.45;1765049;80;20444;-88
2021/07/17 06:13:19;;;;;;;;;;;;;;;22.70;81.38;98100.30;1739521;81;24819;-88
2021/07/17 06:15:45;;;;;;;;;;;;;;;22.72;81.43;98096.47;1771504;80;22042;-88
2021/07/17 06:18:13;;;;;;;;;;;;;;;22.91;81.55;98095.00;1766782;80;21295;-88
2021/07/17 06:20:40;;;;;;;;;;;;;;;23.01;81.62;98089.32;1767689;80;25333;-88
2021/07/17 06:23:06;;;;;;;;;;;;;;;23.08;81.69;98088.33;1765385;80;20545;-88
2021/07/17 06:25:37;;;;;;;;;;;;;;;23.17;81.72;98094.36;1727656;82;20274;-88
2021/07/17 06:28:00;;;;;;;;;;;;;;;23.12;81.70;98095.45;1770631;80;22021;-88
2021/07/17 06:30:35;;;;;;;;;;;;;;;23.11;81.67;98095.97;1770408;80;20907;-88
2021/07/17 06:33:01;;;;;;;;;;;;;;;23.17;81.66;98097.03;1770253;80;24541;-87
2021/07/17 06:35:33;;;;;;;;;;;;;;;23.28;81.68;98086.64;1771065;80;20264;-89
2021/07/17 06:37:59;;;;;;;;;;;;;;;23.46;81.72;98086.13;1770907;80;24996;-89
2021/07/17 06:40:34;;;;;;;;;;;;;;;23.65;81.79;98089.44;1730297;82;20837;-89
2021/07/17 06:43:03;;;;;;;;;;;;;;;23.73;81.77;98098.61;1693477;83;26735;-89
2021/07/17 06:45:29;;;;;;;;;;;;;;;23.71;81.66;98096.66;1693494;83;24407;-89
2021/07/17 06:47:54;;;;;;;;;;;;;;;23.71;81.49;98102.01;1692076;83;20330;-89
2021/07/17 06:50:27;;;;;;;;;;;;;;;23.69;81.37;98089.86;1695497;84;25188;-88
2021/07/17 06:53:08;;;;;;;;;;;;;;;23.63;81.22;98090.64;1689899;83;22670;-88
2021/07/17 06:55:34;;;;;;;;;;;;;;;23.59;81.08;98092.89;1711109;83;26808;-88
2021/07/17 06:58:00;;;;;;;;;;;;;;;23.65;81.06;98093.44;1713634;83;24405;-88
2021/07/17 07:00:26;;;;;;;;;;;;;;;23.72;81.01;98098.31;1710306;83;20306;-88
2021/07/17 07:02:52;;;;;;;;;;;;;;;23.75;80.96;98092.56;1713230;83;24999;-89
2021/07/17 07:05:20;;;;;;;;;;;;;;;23.80;80.87;98099.16;1713471;83;20289;-88
2021/07/17 07:07:47;;;;;;;;;;;;;;;23.82;80.79;98103.80;1707504;83;26162;-88
2021/07/17 07:10:12;;;;;;;;;;;;;;;23.92;80.76;98107.75;1704029;83;24491;-88
2021/07/17 07:12:39;;;;;;;;;;;;;;;23.97;80.69;98105.80;1705739;83;20271;-87
2021/07/17 07:15:15;;;;;;;;;;;;;;;24.00;80.60;98104.09;1704297;84;22273;-88
2021/07/17 07:17:43;;;;;;;;;;;;;;;24.08;80.53;98093.20;1680382;84;20231;-88
2021/07/17 07:20:09;;;;;;;;;;;;;;;24.15;80.42;98098.06;1702223;83;26066;-88
2021/07/17 07:22:36;;;;;;;;;;;;;;;24.28;80.36;98088.75;1704468;83;24707;-88
2021/07/17 07:25:04;;;;;;;;;;;;;;;24.50;80.39;98091.58;1702517;83;20305;-88
2021/07/17 07:27:30;;;;;;;;;;;;;;;24.70;80.38;98083.59;1703439;82;25147;-88
2021/07/17 07:29:56;;;;;;;;;;;;;;;24.86;80.30;98089.87;1699863;83;22889;-88
2021/07/17 07:32:22;;;;;;;;;;;;;;;24.90;80.12;98084.44;1697072;83;26056;-88
2021/07/17 07:34:52;;;;;;;;;;;;;;;24.86;79.81;98082.34;1702845;84;24546;-88
2021/07/17 07:37:18;;;;;;;;;;;;;;;24.87;79.56;98086.17;1700170;83;20345;-88
2021/07/17 07:39:44;;;;;;;;;;;;;;;24.97;79.46;98088.45;1702532;84;25028;-88
2021/07/17 07:42:10;;;;;;;;;;;;;;;24.99;79.25;98081.84;1705300;83;22043;-88
2021/07/17 07:44:37;;;;;;;;;;;;;;;25.13;79.10;98096.58;1706912;83;25954;-88
2021/07/17 07:47:07;;;;;;;;;;;;;;;25.12;78.90;98094.41;1700763;84;24502;-88
2021/07/17 07:49:33;;;;;;;;;;;;;;;25.11;78.67;98098.11;1704082;83;20536;-88
2021/07/17 07:51:59;;;;;;;;;;;;;;;25.03;78.33;98097.52;1700795;83;24968;-88
2021/07/17 07:54:25;;;;;;;;;;;;;;;24.97;78.01;98099.16;1706474;83;22056;-88
2021/07/17 07:56:51;;;;;;;;;;;;;;;25.02;77.81;98099.88;1700186;84;26048;-88
2021/07/17 07:59:17;;;;;;;;;;;;;;;25.04;77.63;98102.64;1701430;83;21307;-88
2021/07/17 08:01:43;;;;;;;;;;;;;;;25.02;77.43;98096.69;1701186;83;20906;-88
2021/07/17 08:04:11;;;;;;;;;;;;;;;25.03;77.19;98097.00;1704383;83;20758;-88
2021/07/17 08:06:39;;;;;;;;;;;;;;;25.14;77.03;98103.07;1705258;83;21958;-88
2021/07/17 08:09:07;;;;;;;;;;;;;;;25.23;76.83;98099.14;1703896;83;26136;-88
2021/07/17 08:11:33;;;;;;;;;;;;;;;25.30;76.61;98101.81;1704165;83;24588;-88
2021/07/17 08:14:07;;;;;;;;;;;;;;;25.32;76.31;98099.73;1705420;82;20316;-88
2021/07/17 08:16:33;;;;;;;;;;;;;;;25.39;76.06;98110.75;1703959;83;24964;-88
2021/07/17 08:18:59;;;;;;;;;;;;;;;25.49;75.81;98104.13;1735865;81;21998;-88
2021/07/17 08:21:25;;;;;;;;;;;;;;;25.39;75.40;98108.07;1681890;83;21069;-88
2021/07/17 08:23:51;;;;;;;;;;;;;;;25.39;75.03;98103.23;1718253;82;20264;-88
2021/07/17 08:26:18;;;;;;;;;;;;;;;25.37;74.69;98100.75;1716840;82;20867;-89
2021/07/17 08:28:44;;;;;;;;;;;;;;;25.32;74.30;98107.77;1711834;82;25206;-89
2021/07/17 08:31:10;;;;;;;;;;;;;;;25.34;74.01;98107.05;1714706;83;22015;-88
2021/07/17 08:33:37;;;;;;;;;;;;;;;25.34;73.76;98107.88;1697851;83;25957;-89
2021/07/17 08:36:03;;;;;;;;;;;;;;;25.28;73.45;98104.69;1721015;82;24496;-89
2021/07/17 08:38:29;;;;;;;;;;;;;;;25.29;73.24;98103.66;1695770;83;20182;-88
2021/07/17 08:40:58;;;;;;;;;;;;;;;25.25;72.96;98100.28;1718589;82;20196;-89
2021/07/17 08:43:26;;;;;;;;;;;;;;;25.25;72.73;98105.12;1712761;83;22095;-89
2021/07/17 08:45:55;;;;;;;;;;;;;;;25.27;72.51;98104.89;1713976;83;26002;-88
2021/07/17 08:48:21;;;;;;;;;;;;;;;25.23;72.22;98107.17;1711539;83;20863;-88
2021/07/17 08:50:48;;;;;;;;;;;;;;;25.25;72.09;98105.63;1713637;83;20250;-89
2021/07/17 08:53:20;;;;;;;;;;;;;;;25.31;72.02;98103.46;1709895;83;24628;-88
2021/07/17 08:55:46;;;;;;;;;;;;;;;25.35;71.93;98104.69;1714316;83;22137;-89
2021/07/17 08:58:12;;;;;;;;;;;;;;;25.42;71.82;98106.81;1707761;83;20939;-89
2021/07/17 09:00:40;;;;;;;;;;;;;;;25.48;71.78;98103.30;1711453;83;20287;-89
2021/07/17 09:03:08;;;;;;;;;;;;;;;25.51;71.67;98103.41;1683764;83;20293;-89
2021/07/17 09:05:42;;;;;;;;;;;;;;;25.53;71.58;98105.38;1713519;83;25992;-88
2021/07/17 09:08:04;;;;;;;;;;;;;;;25.52;71.44;98099.19;1704537;83;22172;-88
2021/07/17 09:10:36;;;;;;;;;;;;;;;25.55;71.28;98100.09;1697018;83;26021;-88
2021/07/17 09:13:08;;;;;;;;;;;;;;;25.60;71.22;98101.66;1697321;83;24582;-89
2021/07/17 09:15:34;;;;;;;;;;;;;;;25.59;71.03;98095.98;1718516;83;20194;-88
2021/07/17 09:18:01;;;;;;;;;;;;;;;25.58;70.87;98090.34;1718354;83;25029;-88
2021/07/17 09:20:35;;;;;;;;;;;;;;;25.62;70.77;98086.72;1691924;83;22058;-89
2021/07/17 09:23:03;;;;;;;;;;;;;;;25.66;70.60;98090.61;1699636;83;26000;-90
2021/07/17 09:25:42;;;;;;;;;;;;;;;25.67;70.38;98093.61;1701053;83;24521;-88
2021/07/17 09:28:22;;;;;;;;;;;;;;;25.77;70.29;98089.95;1721665;83;20296;-88
2021/07/17 09:30:48;;;;;;;;;;;;;;;25.86;70.18;98087.87;1722062;83;25031;-88
2021/07/17 09:33:15;;;;;;;;;;;;;;;25.92;70.06;98089.16;1723076;83;22018;-88
2021/07/17 09:35:42;;;;;;;;;;;;;;;25.91;69.83;98090.23;1721024;83;26077;-89
2021/07/17 09:38:09;;;;;;;;;;;;;;;25.84;69.56;98088.08;1715222;83;24433;-89
2021/07/17 09:40:42;;;;;;;;;;;;;;;25.84;69.40;98090.77;1722043;83;20214;-89
2021/07/17 09:43:08;;;;;;;;;;;;;;;25.84;69.24;98093.44;1721035;83;24984;-88
2021/07/17 09:45:36;;;;;;;;;;;;;;;25.79;69.02;98091.41;1716032;83;22065;-89
2021/07/17 09:48:22;;;;;;;;;;;;;;;25.73;68.80;98090.91;1722269;83;26219;-88
2021/07/17 09:50:48;;;;;;;;;;;;;;;25.75;68.68;98088.81;1720039;83;24470;-89
2021/07/17 09:53:34;;;;;;;;;;;;;;;25.80;68.60;98091.68;1720385;83;20277;-89
2021/07/17 09:56:13;;;;;;;;;;;;;;;25.84;68.52;98089.42;1722955;83;25287;-88
2021/07/17 09:58:40;;;;;;;;;;;;;;;25.91;68.44;98094.25;1716469;83;22787;-89
2021/07/17 10:01:14;;;;;;;;;;;;;;;26.00;68.36;98087.59;1722498;83;26005;-88
2021/07/17 10:03:43;;;;;;;;;;;;;;;26.07;68.21;98090.25;1720122;81;24477;-88
2021/07/17 10:06:12;;;;;;;;;;;;;;;26.09;68.03;98092.18;1703197;83;20710;-89
2021/07/17 10:08:39;;;;;;;;;;;;;;;26.04;67.74;98086.13;1694982;83;25936;-89
2021/07/17 10:11:11;;;;;;;;;;;;;;;26.04;67.51;98090.15;1686162;84;22093;-88
2021/07/17 10:13:41;;;;;;;;;;;;;;;26.04;67.31;98089.33;1763915;80;26659;-89
2021/07/17 10:16:09;;;;;;;;;;;;;;;26.12;67.26;98085.06;1761170;81;24568;-89
2021/07/17 10:18:38;;;;;;;;;;;;;;;26.17;67.19;98085.24;1747002;80;20420;-90
2021/07/17 10:21:04;;;;;;;;;;;;;;;26.16;67.05;98084.42;1760562;81;25035;-90
2021/07/17 10:23:30;;;;;;;;;;;;;;;26.17;66.83;98086.07;1753349;81;20930;-89
2021/07/17 10:25:57;;;;;;;;;;;;;;;26.21;66.68;98085.11;1758712;81;21179;-90
2021/07/17 10:28:28;;;;;;;;;;;;;;;26.21;66.50;98083.25;1759706;81;24725;-89
2021/07/17 10:30:51;;;;;;;;;;;;;;;26.23;66.35;98081.22;1754949;81;20449;-89
2021/07/17 10:33:18;;;;;;;;;;;;;;;26.23;66.20;98075.86;1758167;81;24950;-89
2021/07/17 10:35:46;;;;;;;;;;;;;;;26.33;66.18;98079.92;1759695;81;22761;-89
2021/07/17 10:38:14;;;;;;;;;;;;;;;26.39;66.14;98074.52;1758292;81;25966;-89
2021/07/17 10:40:51;;;;;;;;;;;;;;;26.45;66.09;98079.54;1758560;81;21556;-89
2021/07/17 10:43:26;;;;;;;;;;;;;;;26.45;65.95;98081.70;1760311;81;20480;-89
2021/07/17 10:45:59;;;;;;;;;;;;;;;26.48;65.80;98083.12;1759798;80;22988;-89
2021/07/17 10:48:29;;;;;;;;;;;;;;;26.49;65.63;98076.20;1721780;81;22203;-89
2021/07/17 10:51:04;;;;;;;;;;;;;;;26.56;65.53;98080.19;1758932;80;25967;-89
2021/07/17 10:53:49;;;;;;;;;;;;;;;26.58;65.31;98079.43;1758152;81;25106;-89
2021/07/17 10:56:30;;;;;;;;;;;;;;;26.61;65.09;98074.47;1755591;81;20372;-89
2021/07/17 10:59:10;;;;;;;;;;;;;;;26.71;64.99;98063.75;1754464;81;25151;-89
2021/07/17 11:02:02;;;;;;;;;;;;;;;26.75;64.83;98063.09;1759076;81;21988;-89
2021/07/17 11:04:34;;;;;;;;;;;;;;;26.82;64.77;98053.64;1758572;81;26072;-91
2021/07/17 11:07:26;;;;;;;;;;;;;;;26.88;64.68;98054.14;1756927;81;24435;-91
2021/07/17 11:10:07;;;;;;;;;;;;;;;26.87;64.47;98056.00;1759397;81;20238;-90
2021/07/17 11:12:44;;;;;;;;;;;;;;;26.83;64.18;98054.78;1760542;81;24717;-90
2021/07/17 11:15:11;;;;;;;;;;;;;;;26.87;64.06;98057.34;1762401;81;22086;-90
2021/07/17 11:17:44;;;;;;;;;;;;;;;26.93;63.99;98055.13;1757058;81;26145;-90
2021/07/17 11:20:16;;;;;;;;;;;;;;;26.92;63.89;98054.82;1763056;80;25284;-90
2021/07/17 11:22:43;;;;;;;;;;;;;;;26.86;63.79;98049.47;1761347;79;20300;-90
2021/07/17 11:25:10;;;;;;;;;;;;;;;26.91;63.76;98054.52;1762734;81;25049;-90
2021/07/17 11:27:39;;;;;;;;;;;;;;;27.02;63.80;98049.77;1767256;80;22014;-90
2021/07/17 11:30:16;;;;;;;;;;;;;;;27.11;63.82;98044.13;1763839;81;25953;-89
2021/07/17 11:33:00;;;;;;;;;;;;;;;27.14;63.78;98031.58;1760589;81;24446;-90
2021/07/17 11:35:26;;;;;;;;;;;;;;;27.25;63.69;98043.75;1759469;80;20389;-90
2021/07/17 11:37:55;;;;;;;;;;;;;;;27.32;63.53;98047.72;1761131;80;25004;-90
2021/07/17 11:40:20;;;;;;;;;;;;;;;27.36;63.33;98044.88;1761773;81;21991;-90
2021/07/17 11:42:47;;;;;;;;;;;;;;;27.35;63.10;98043.23;1761906;81;25959;-90
2021/07/17 11:45:15;;;;;;;;;;;;;;;27.34;62.92;98043.75;1764176;80;24392;-90
2021/07/17 11:47:53;;;;;;;;;;;;;;;27.35;62.81;98044.58;1761123;81;20245;-90
2021/07/17 11:50:21;;;;;;;;;;;;;;;27.43;62.71;98042.43;1734164;81;24855;-89
2021/07/17 11:52:48;;;;;;;;;;;;;;;27.53;62.65;98041.93;1762437;81;22094;-89
2021/07/17 11:55:19;;;;;;;;;;;;;;;27.54;62.46;98044.10;1762559;81;26828;-89
2021/07/17 11:57:51;;;;;;;;;;;;;;;27.50;62.16;98042.36;1761258;81;25239;-90
2021/07/17 12:00:22;;;;;;;;;;;;;;;27.48;61.97;98033.17;1759970;80;20272;-89
2021/07/17 12:02:54;;;;;;;;;;;;;;;27.60;61.93;98032.45;1766475;80;25028;-89
2021/07/17 12:05:26;;;;;;;;;;;;;;;27.63;61.80;98030.64;1762527;81;21963;-89
2021/07/17 12:07:55;;;;;;;;;;;;;;;27.64;61.68;98031.77;1762766;80;25989;-90
2021/07/17 12:10:22;;;;;;;;;;;;;;;27.60;61.48;98032.45;1768175;80;24435;-89
2021/07/17 12:12:52;;;;;;;;;;;;;;;27.71;61.53;98033.04;1734008;81;20298;-90
2021/07/17 12:15:26;;;;;;;;;;;;;;;27.82;61.58;98037.10;1728308;82;25184;-90
2021/07/17 12:17:56;;;;;;;;;;;;;;;27.90;61.57;98027.91;1733106;82;21946;-88
2021/07/17 12:20:33;;;;;;;;;;;;;;;28.05;61.60;98027.49;1723779;82;26192;-89
2021/07/17 12:23:13;;;;;;;;;;;;;;;28.10;61.54;98018.21;1762267;81;25267;-89
2021/07/17 12:25:40;;;;;;;;;;;;;;;28.26;61.54;98018.94;1758163;81;20237;-89
2021/07/17 12:28:11;;;;;;;;;;;;;;;28.36;61.39;98014.36;1731653;81;25136;-88
2021/07/17 12:30:40;;;;;;;;;;;;;;;28.52;61.38;98007.78;1720635;82;21943;-88
2021/07/17 12:33:10;;;;;;;;;;;;;;;28.61;61.21;98002.34;1762668;81;26045;-89
2021/07/17 12:35:36;;;;;;;;;;;;;;;28.56;60.92;97996.01;1764260;81;24438;-89
2021/07/17 12:38:23;;;;;;;;;;;;;;;28.48;60.63;97993.12;1761176;81;20579;-89
2021/07/17 12:40:50;;;;;;;;;;;;;;;28.53;60.56;97983.81;1760662;81;25154;-89
2021/07/17 12:43:20;;;;;;;;;;;;;;;28.47;60.30;97977.22;1759326;81;22056;-89
2021/07/17 12:45:48;;;;;;;;;;;;;;;28.44;60.11;97972.28;1761763;81;26028;-89
2021/07/17 12:48:14;;;;;;;;;;;;;;;28.49;60.05;97964.33;1760918;81;24872;-88
2021/07/17 12:50:40;;;;;;;;;;;;;;;28.61;60.05;97966.51;1754546;80;20206;-88
2021/07/17 12:53:13;;;;;;;;;;;;;;;28.68;59.88;97955.92;1761836;81;25217;-88
2021/07/17 12:55:45;;;;;;;;;;;;;;;28.70;59.59;97956.48;1763275;80;21932;-89